Webcam Richtung Westen

Webcam27

Webcam Richtung Norden

Webcam36

Webcam Richtung Osten

Webcam09

Wetter(Würzburg):
270730Z AUTO 27010G17KT 75KM RERA BKN024 OVC096 OVC130 09/07 Q0999
		
Tue 27.09.2022, 07:30 UTC

Sichtweite bis zu 75 km
kürzlich Regen
Wind aus 270° mit 10kt, in Böen bis zu 17kt
unterbrochene Wolkendecke (5-7 Achtel) bei 2400 Fuß
bedeckter Himmel (8 Achtel) bei 9600 Fuß
bedeckter Himmel (8 Achtel) bei 13000 Fuß
Temperatur: 9 °C
Taupunkt: 7 °C
QNH: 999 hPa
                         Heute        Morgen
                         27.09        28.09
--------------------------------------------
Beginn der Dämmerung     04:41        04:43
Sonnenaufgang            05:13        05:15
Sonnenuntergang          17:09        17:07
Ende der Dämmerung       17:41        17:39

Alle Zeiten in UTC